1 juillet 2022

Temps Code Temps Temp. Vue Base cloud Vent METAR/SPECI
10:00 pm
V
68 °F 6¼ mi+ - 100° 100° 5 kt METAR LFBD 012000Z AUTO 10005KT CAVOK 20/10 Q1020 NOSIG
9:30 pm
V
70 °F 6¼ mi+ - 070° 070° 6 kt METAR LFBD 011930Z AUTO 07006KT 340V090 CAVOK 21/10 Q1020 NOSIG
9:00 pm
V
72 °F 6¼ mi+ - 090° 090° 8 kt METAR LFBD 011900Z AUTO 09008KT 060V120 CAVOK 22/09 Q1020 NOSIG
8:30 pm
V
73 °F 6¼ mi+ - 040° 040° 7 kt METAR LFBD 011830Z AUTO 04007KT 020V090 CAVOK 23/10 Q1020 NOSIG
8:00 pm
V
73 °F 6¼ mi+ - 090° 090° 6 kt METAR LFBD 011800Z AUTO 09006KT 050V130 CAVOK 23/10 Q1020 NOSIG
7:30 pm
V
73 °F 6¼ mi+ - 070° 070° 5 kt METAR LFBD 011730Z AUTO 07005KT 360V150 CAVOK 23/10 Q1020 NOSIG
7:00 pm
V
73 °F 6¼ mi+ - 070° 070° 8 kt METAR LFBD 011700Z AUTO 07008KT 350V120 CAVOK 23/10 Q1020 NOSIG
6:30 pm
V
73 °F 6¼ mi+ - 010° 010° 4 kt METAR LFBD 011630Z AUTO 01004KT 350V050 CAVOK 23/10 Q1020 NOSIG
6:00 pm
V
73 °F 6¼ mi+ - 050° 050° 7 kt METAR LFBD 011600Z AUTO 05007KT 010V090 CAVOK 23/09 Q1020 NOSIG
5:30 pm
V
75 °F 6¼ mi+ - Var Var 3 kt METAR LFBD 011530Z AUTO VRB03KT CAVOK 24/10 Q1020 NOSIG
5:00 pm
V
75 °F 6¼ mi+ - Var Var 3 kt METAR LFBD 011500Z AUTO VRB03KT CAVOK 24/10 Q1020 NOSIG
4:30 pm
V
73 °F 6¼ mi+ - 080° 080° 7 kt METAR LFBD 011430Z AUTO 08007KT 030V130 CAVOK 23/11 Q1021 NOSIG
4:00 pm
V
73 °F 6¼ mi+ - 100° 100° 3 kt METAR LFBD 011400Z AUTO 10003KT 050V160 CAVOK 23/10 Q1021 NOSIG
3:30 pm
V
72 °F 6¼ mi+ - 030° 030° 5 kt METAR LFBD 011330Z AUTO 03005KT 350V110 CAVOK 22/10 Q1021 NOSIG
3:00 pm
V
72 °F 6¼ mi+ 5.800 ft Var Var 3 kt METAR LFBD 011300Z AUTO VRB03KT 9999 FEW049 BKN058 22/11 Q1021 NOSIG
2:30 pm
V
72 °F 6¼ mi+ - 120° 120° 4 kt METAR LFBD 011230Z AUTO 12004KT 090V170 CAVOK 22/10 Q1021 NOSIG
2:00 pm
V
70 °F 6¼ mi+ 6.200 ft Var Var 3 kt METAR LFBD 011200Z AUTO VRB03KT 9999 SCT049 BKN062 21/10 Q1021 NOSIG
1:30 pm
V
70 °F 6¼ mi+ - 070° 070° 5 kt METAR LFBD 011130Z AUTO 07005KT 020V110 CAVOK 21/10 Q1021 NOSIG
1:00 pm
V
70 °F 6¼ mi+ 6.200 ft 070° 070° 4 kt METAR LFBD 011100Z AUTO 07004KT 350V110 9999 SCT048 BKN062 21/10 Q1021 NOSIG
12:30 pm
V
70 °F 6¼ mi+ 6.400 ft 090° 090° 4 kt METAR LFBD 011030Z AUTO 09004KT 050V140 9999 SCT046 BKN064 21/09 Q1021 NOSIG
12:00 pm
V
68 °F 6¼ mi+ - Var Var 4 kt METAR LFBD 011000Z AUTO VRB04KT 9999 FEW039 SCT062 20/11 Q1021 NOSIG
11:30 am
V
66 °F 6¼ mi+ 3.600 ft Var Var 3 kt METAR LFBD 010930Z AUTO VRB03KT 9999 BKN036 BKN048 BKN056 19/10 Q1021 NOSIG
11:00 am
V
66 °F 6¼ mi+ 4.000 ft Var Var 3 kt METAR LFBD 010900Z AUTO VRB03KT 9999 FEW031 BKN040 BKN046 19/11 Q1021 NOSIG
10:30 am
V
66 °F 6¼ mi+ - 130° 130° 3 kt METAR LFBD 010830Z AUTO 13003KT 080V220 9999 FEW029 19/11 Q1021 NOSIG
10:00 am
V
66 °F 6¼ mi+ - 130° 130° 3 kt METAR LFBD 010800Z AUTO 13003KT 050V170 CAVOK 19/12 Q1021 NOSIG
9:30 am
V
64 °F 6¼ mi+ - 120° 120° 4 kt METAR LFBD 010730Z AUTO 12004KT 090V150 CAVOK 18/11 Q1021 NOSIG
9:00 am
V
63 °F 6¼ mi+ - Var Var 3 kt METAR LFBD 010700Z AUTO VRB03KT CAVOK 17/12 Q1021 NOSIG
8:30 am
V
59 °F 6¼ mi+ - Var Var 3 kt METAR LFBD 010630Z AUTO VRB03KT CAVOK 15/12 Q1021 NOSIG
8:00 am
V
57 °F 6¼ mi+ - Var 000° 0 kt METAR LFBD 010600Z AUTO 00000KT CAVOK 14/12 Q1021 NOSIG
7:30 am
V
54 °F 6¼ mi+ - 140° 140° 1 kt METAR LFBD 010530Z AUTO 14001KT 9999 FEW037 12/11 Q1021 NOSIG
7:00 am
V
52 °F 6¼ mi+ - 100° 100° 3 kt METAR LFBD 010500Z AUTO 10003KT CAVOK 11/11 Q1021 NOSIG
6:30 am
V
50 °F 6¼ mi+ - Var 000° 0 kt METAR LFBD 010430Z AUTO 00000KT CAVOK 10/09 Q1021 NOSIG
6:00 am
V
52 °F 6¼ mi+ - 110° 110° 1 kt METAR LFBD 010400Z AUTO 11001KT CAVOK 11/10 Q1021 TEMPO 0800 BCFG
5:30 am
V
52 °F 6¼ mi+ - 160° 160° 1 kt METAR LFBD 010330Z AUTO 16001KT CAVOK 11/10 Q1020 TEMPO 0800 BCFG
5:00 am
V
52 °F 6¼ mi+ - Var 000° 0 kt METAR LFBD 010300Z AUTO 00000KT CAVOK 11/10 Q1020 TEMPO 0800 BCFG
4:30 am
V
52 °F 6¼ mi+ - Var 000° 0 kt METAR LFBD 010230Z AUTO 00000KT CAVOK 11/10 Q1020 TEMPO 0800 BCFG
4:00 am
V
52 °F 6¼ mi+ - Var 000° 0 kt METAR LFBD 010200Z AUTO 00000KT CAVOK 11/10 Q1020 TEMPO 0800 BCFG
3:30 am
V
52 °F 6¼ mi+ - Var 000° 0 kt METAR LFBD 010130Z AUTO 00000KT CAVOK 11/10 Q1020 TEMPO 0800 BCFG
3:00 am
V
54 °F 6¼ mi+ - 210° 210° 2 kt METAR LFBD 010100Z AUTO 21002KT CAVOK 12/10 Q1020 TEMPO 0800 BCFG
2:30 am
V
54 °F 6¼ mi+ - 170° 170° 1 kt METAR LFBD 010030Z AUTO 17001KT CAVOK 12/11 Q1020 TEMPO 0800 BCFG
2:00 am
V
54 °F 6¼ mi+ - Var Var 2 kt METAR LFBD 010000Z AUTO VRB02KT CAVOK 12/11 Q1021 TEMPO 0800 BCFG
1:30 am
V
54 °F 6¼ mi+ - Var 000° 0 kt METAR LFBD 302330Z AUTO 00000KT CAVOK 12/11 Q1021 TEMPO 0800 BCFG
1:00 am
I
55 °F 1½ mi - Var Var 1 kt METAR LFBD 302300Z AUTO VRB01KT 9999 2500 NSC 13/11 Q1021 NOSIG
12:30 am
I
55 °F 2¼ mi - 250° 250° 2 kt METAR LFBD 302230Z AUTO 25002KT 9999 3600 NSC 13/11 Q1020 NOSIG
12:00 am
V
55 °F 6¼ mi+ - 260° 260° 3 kt METAR LFBD 302200Z AUTO 26003KT CAVOK 13/11 Q1020 NOSIG

30 juin 2022

Temps Code Temps Temp. Vue Base cloud Vent METAR/SPECI
11:30 pm
V
57 °F 6¼ mi+ - 250° 250° 3 kt METAR LFBD 302130Z AUTO 25003KT CAVOK 14/11 Q1020 NOSIG
11:00 pm
V
59 °F 6¼ mi+ - Var Var 2 kt METAR LFBD 302100Z AUTO VRB02KT CAVOK 15/11 Q1020 NOSIG
10:30 pm
V
61 °F 6¼ mi+ - 290° 290° 1 kt METAR LFBD 302030Z AUTO 29001KT CAVOK 16/10 Q1020 NOSIG
10:00 pm
V
61 °F 6¼ mi+ - 310° 310° 4 kt METAR LFBD 302000Z AUTO 31004KT 290V360 CAVOK 16/10 Q1019 NOSIG
9:30 pm
V
63 °F 6¼ mi+ - 300° 300° 5 kt METAR LFBD 301930Z AUTO 30005KT 280V010 CAVOK 17/10 Q1019 NOSIG
9:00 pm
V
66 °F 6¼ mi+ - 310° 310° 8 kt METAR LFBD 301900Z AUTO 31008KT CAVOK 19/10 Q1019 NOSIG
8:30 pm
V
66 °F 6¼ mi+ - 290° 290° 8 kt METAR LFBD 301830Z AUTO 29008KT CAVOK 19/11 Q1018 NOSIG
8:00 pm
V
66 °F 6¼ mi+ - 290° 290° 11 kt METAR LFBD 301800Z AUTO 29011KT 9999 FEW041 19/10 Q1018 NOSIG
7:30 pm
V
68 °F 6¼ mi+ - 280° 280° 10 kt METAR LFBD 301730Z AUTO 28010KT CAVOK 20/10 Q1018 NOSIG
7:00 pm
V
68 °F 6¼ mi+ - 310° 310° 12 kt METAR LFBD 301700Z AUTO 31012KT 9999 FEW047 20/10 Q1018 NOSIG
6:30 pm
V
68 °F 6¼ mi+ - 290° 290° 12 kt METAR LFBD 301630Z AUTO 29012KT 260V330 9999 FEW044 SCT070 20/10 Q1018 NOSIG
6:00 pm
V
70 °F 6¼ mi+ 10.000 ft 280° 280° 11 kt METAR LFBD 301600Z AUTO 28011KT 250V310 9999 FEW045 SCT070 BKN100 21/10 Q1018 NOSIG
5:30 pm
V
68 °F 6¼ mi+ 7.600 ft 280° 280° 8 kt METAR LFBD 301530Z AUTO 28008KT 250V310 9999 FEW040 SCT066 BKN076 20/11 Q1018 NOSIG
5:00 pm
V
68 °F 6¼ mi+ 7.200 ft 260° 260° 9 kt METAR LFBD 301500Z AUTO 26009KT 220V290 9999 SCT040/// BKN072/// OVC100/// //////CB 20/12 Q1018 BECMG SCT020 BKN035
4:30 pm
V
66 °F 6¼ mi+ 10.000 ft 290° 290° 8 kt METAR LFBD 301430Z AUTO 29008KT 250V340 9999 FEW037/// SCT076/// BKN100/// //////CB 19/11 Q1017 BECMG SCT020 BKN035
4:00 pm
V
63 °F 6¼ mi+ 6.200 ft 300° 300° 6 kt METAR LFBD 301400Z AUTO 30006KT 230V010 9999 FEW009/// SCT031/// BKN062/// ///CB 17/14 Q1018 TEMPO 3000 SHRA BECMG SCT020 BKN035
3:30 pm
I
63 °F 1⅛ mi 2.600 ft 270° 270° 7 kt METAR LFBD 301330Z AUTO 27007KT 200V320 5000 1800 +RA BR FEW020/// BKN026/// BKN039/// //////CB 17/14 Q1018 BECMG NSW SCT020 BKN035
3:00 pm
V
66 °F 6¼ mi+ 6.800 ft 200° 200° 5 kt METAR LFBD 301300Z AUTO 20005KT 150V260 9999 FEW017 BKN068 OVC078 19/14 Q1017 TEMPO 3000 SHRA BKN012 BKN020TCU
2:30 pm
M
63 °F 6¼ mi+ 1.500 ft 210° 210° 5 kt METAR LFBD 301230Z AUTO 21005KT 9999 BKN015 BKN054 OVC064 17/14 Q1017 TEMPO 3000 SHRA BKN012 BKN020TCU BECMG 29010KT
2:00 pm
M
63 °F 6¼ mi+ 1.200 ft 200° 200° 3 kt METAR LFBD 301200Z AUTO 20003KT 140V260 9999 BKN012 BKN064 OVC074 17/15 Q1017 TEMPO 3000 SHRA BKN012 BKN020TCU
1:30 pm
V
61 °F 6¼ mi+ 7.400 ft 210° 210° 4 kt METAR LFBD 301130Z AUTO 21004KT 9999 SCT010 OVC074 16/15 Q1017 TEMPO 3000 SHRA BKN012 BKN020TCU BECMG 29010KT
1:00 pm
V
61 °F 6¼ mi+ 8.400 ft 240° 240° 3 kt METAR LFBD 301100Z AUTO 24003KT 9999 -RA SCT010 SCT052 OVC084 16/14 Q1017 TEMPO 3000 SHRA BKN020TCU
12:30 pm
I
61 °F 6¼ mi+ 900 ft 250° 250° 3 kt METAR LFBD 301030Z AUTO 25003KT 9999 -RA BKN009 BKN047 BKN070 16/14 Q1017 TEMPO 3000 SHRA BKN020TCU
12:00 pm
V
61 °F 6¼ mi+ 6.200 ft 240° 240° 3 kt METAR LFBD 301000Z AUTO 24003KT 9999 FEW010/// OVC062/// //////TCU 16/14 Q1017 TEMPO 3000 SHRA
11:30 am
M
59 °F 3¾ mi 3.900 ft Var Var 3 kt METAR LFBD 300930Z AUTO VRB03KT 6000 -RA FEW009/// SCT022/// BKN039/// ///TCU 15/14 Q1016 TEMPO 3000 SHRA
11:00 am
V
59 °F 6¼ mi+ 7.200 ft Var Var 3 kt METAR LFBD 300900Z AUTO VRB03KT 9999 -RA FEW006/// OVC072/// ///TCU 15/14 Q1016 TEMPO 3000 SHRA
10:30 am
V
59 °F 6¼ mi+ 6.400 ft 220° 220° 4 kt METAR LFBD 300830Z AUTO 22004KT 9999 -RA FEW007 SCT048 OVC064 15/14 Q1016 TEMPO 3000 SHRA BKN020TCU
10:00 am
V
59 °F 6¼ mi+ 3.600 ft 240° 240° 4 kt METAR LFBD 300800Z AUTO 24004KT 9999 -RA FEW006/// BKN036/// BKN056/// //////TCU 15/14 Q1016 TEMPO 3000 SHRA BKN014
9:30 am
V
59 °F 6¼ mi+ 6.600 ft 190° 190° 3 kt METAR LFBD 300730Z AUTO 19003KT 9999 FEW005 BKN066 OVC076 15/14 Q1015 TEMPO 3000 SHRA BKN020TCU
9:00 am
V
59 °F 6¼ mi+ 6.000 ft Var Var 1 kt METAR LFBD 300700Z AUTO VRB01KT 9999 FEW007 BKN060 OVC070 15/14 Q1015 TEMPO 4000 -RA BKN014
8:30 am
V
59 °F 6¼ mi+ 4.300 ft 290° 290° 2 kt METAR LFBD 300630Z AUTO 29002KT 9999 -RA FEW006/// SCT030/// BKN043/// ///TCU 15/14 Q1015 TEMPO 4000 -RA BKN014
8:00 am
I
59 °F 2¾ mi 2.500 ft 300° 300° 3 kt METAR LFBD 300600Z AUTO 30003KT 4400 RA BR SCT006/// BKN025/// BKN034/// //////TCU 15/14 Q1015 TEMPO NSW BKN014
7:30 am
I
59 °F 2¾ mi 3.500 ft Var Var 2 kt METAR LFBD 300530Z AUTO VRB02KT 9999 4500 -RA FEW007/// BKN035/// BKN066/// ///CB 15/14 Q1015 TEMPO 4000 -RA BKN014
7:00 am
V
59 °F 6¼ mi+ 5.800 ft Var 000° 0 kt METAR LFBD 300500Z AUTO 00000KT 9999 -RA FEW040 SCT048 BKN058 15/14 Q1014 TEMPO 4000 SHRA BKN020TCU
6:30 am
V
59 °F 6¼ mi+ 3.900 ft Var Var 3 kt METAR LFBD 300430Z AUTO VRB03KT 9999 FEW005/// SCT033/// BKN039/// //////TCU 15/14 Q1015 TEMPO 4000 SHRA SCT010 BKN020 BKN050CB
6:00 am
V
59 °F 6¼ mi+ 6.200 ft 200° 200° 3 kt METAR LFBD 300400Z AUTO 20003KT 9999 FEW030/// BKN062/// OVC074/// //////TCU 15/14 Q1015 TEMPO 4000 RA SCT010 BKN020 BKN050CB
5:30 am
V
59 °F 6¼ mi+ 4.900 ft 220° 220° 2 kt METAR LFBD 300330Z AUTO 22002KT 9999 -RA FEW029/// BKN049/// OVC064/// //////CB 15/14 Q1015 TEMPO 4000 RA
5:00 am
M
59 °F 4⅜ mi 2.800 ft 200° 200° 3 kt METAR LFBD 300300Z AUTO 20003KT 170V230 7000 -RA FEW007/// SCT015/// BKN028/// //////CB 15/14 Q1015 TEMPO 4000 RA
4:30 am
M
61 °F 3¾ mi 3.400 ft 260° 260° 4 kt METAR LFBD 300230Z AUTO 26004KT 6000 DZ FEW017 SCT025 BKN034 16/14 Q1015 TEMPO 4000 RA SCT010 BKN020 BKN050CB
4:00 am
V
61 °F 6¼ mi+ 5.800 ft 130° 130° 2 kt METAR LFBD 300200Z AUTO 13002KT 9999 FEW046/// OVC058/// //////TCU 16/15 Q1015 TEMPO 4000 RA SCT010 BKN020 BKN050CB
3:30 am
V
61 °F 6¼ mi+ 5.200 ft 140° 140° 2 kt METAR LFBD 300130Z AUTO 14002KT 9999 FEW034/// OVC052/// ///TCU 16/15 Q1015 TEMPO 4000 RA SCT010 BKN020 BKN050CB
3:00 am
M
61 °F 6¼ mi+ 2.800 ft 130° 130° 2 kt METAR LFBD 300100Z AUTO 13002KT 9999 BKN028/// BKN041/// OVC062/// //////TCU 16/15 Q1015 TEMPO 4000 RA SCT010 BKN020 BKN050CB
2:30 am
V
61 °F 6¼ mi+ 5.800 ft 150° 150° 3 kt METAR LFBD 300030Z AUTO 15003KT 9999 -RA FEW035/// OVC058/// ///CB 16/15 Q1015 TEMPO 4000 RA
2:00 am
I
61 °F 2⅝ mi 6.000 ft 170° 170° 4 kt METAR LFBD 300000Z AUTO 17004KT 130V190 9999 4300 +RA FEW021/// OVC060/// //////CB 16/15 Q1015 TEMPO 4000 RA SCT010 BKN020
1:30 am
I
61 °F 2 mi - 190° 190° 4 kt METAR LFBD 292330Z AUTO 19004KT 9999 3300 RA //////TCU 16/14 Q1016 TEMPO 4000 RA SCT010 BKN020
1:00 am
V
61 °F 6¼ mi+ - Var Var 2 kt METAR LFBD 292300Z AUTO VRB02KT 9999 -RA //////CB 16/14 Q1015 TEMPO 4000 RA SCT010 BKN020
12:30 am
V
61 °F 6¼ mi+ - 310° 310° 2 kt METAR LFBD 292230Z AUTO 31002KT 9999 //////TCU 16/13 Q1016 TEMPO 4000 RA SCT015 BKN030CB
12:00 am
V
61 °F 6¼ mi+ - Var Var 1 kt METAR LFBD 292200Z AUTO VRB01KT 9999 //////CB 16/13 Q1016 TEMPO 4000 -RA BKN012 SCT030TCU

29 juin 2022

Temps Code Temps Temp. Vue Base cloud Vent METAR/SPECI
11:30 pm
V
63 °F 6¼ mi+ - 320° 320° 4 kt METAR LFBD 292130Z AUTO 32004KT 9999 //////CB 17/13 Q1016 TEMPO 4000 -RA BKN012 SCT030TCU
11:00 pm
V
63 °F 6¼ mi+ - 340° 340° 5 kt METAR LFBD 292100Z AUTO 34005KT 310V030 9999 -RA ///CB 17/13 Q1016 TEMPO 4000 -RA BKN012 SCT030TCU
10:30 pm
V
63 °F 6¼ mi+ 5.800 ft 340° 340° 5 kt METAR LFBD 292030Z AUTO 34005KT 9999 -RA FEW016 OVC058 17/13 Q1016 TEMPO 4000 -RA BKN012 SCT030TCU
10:00 pm
M
63 °F 6¼ mi+ 2.900 ft 310° 310° 6 kt METAR LFBD 292000Z AUTO 31006KT 9999 FEW014 BKN029 BKN058 17/14 Q1016 TEMPO 4000 -RA BKN012 SCT030TCU
9:30 pm
V
63 °F 6¼ mi+ 14.000 ft 330° 330° 8 kt METAR LFBD 291930Z AUTO 33008KT 9999 SCT016 BKN140 17/14 Q1015 TEMPO 4000 -RA BKN012 SCT030TCU
9:00 pm
V
64 °F 6¼ mi+ 12.000 ft 320° 320° 8 kt METAR LFBD 291900Z AUTO 32008KT 290V360 9999 SCT018 BKN120 BKN140 18/14 Q1015 TEMPO 4000 -RA BKN012 SCT030TCU
8:30 pm
V
64 °F 6¼ mi+ 12.000 ft 330° 330° 8 kt METAR LFBD 291830Z AUTO 33008KT 300V360 9999 FEW022 OVC120 18/13 Q1015 TEMPO 4000 -RA BKN012 SCT030TCU
8:00 pm
V
64 °F 6¼ mi+ - 350° 350° 8 kt METAR LFBD 291800Z AUTO 35008KT 330V050 CAVOK 18/13 Q1015 TEMPO 4000 -RA BKN012 SCT030TCU
7:30 pm
V
66 °F 6¼ mi+ - 320° 320° 12 kt METAR LFBD 291730Z AUTO 32012KT CAVOK 19/13 Q1015 TEMPO 4000 -RA BKN012 SCT030TCU
7:00 pm
V
68 °F 6¼ mi+ - 320° 320° 10 kt METAR LFBD 291700Z AUTO 32010KT CAVOK 20/13 Q1015 NOSIG
6:30 pm
V
72 °F 6¼ mi+ 7.000 ft 300° 300° 13 kt METAR LFBD 291630Z AUTO 30013KT 9999 FEW030 SCT060 BKN070 22/13 Q1015 NOSIG
6:00 pm
V
70 °F 6¼ mi+ 5.400 ft 290° 290° 11 kt METAR LFBD 291600Z AUTO 29011KT 9999 FEW027 BKN054 OVC064 21/15 Q1015 NOSIG
5:30 pm
V
72 °F 6¼ mi+ 5.200 ft 310° 310° 11 kt METAR LFBD 291530Z AUTO 31011KT 9999 FEW027 OVC052 22/15 Q1015 NOSIG
5:00 pm
V
70 °F 6¼ mi+ 5.000 ft 310° 310° 11 kt METAR LFBD 291500Z AUTO 31011KT 9999 FEW022 OVC050 21/15 Q1015 NOSIG
Données plus anciennes

Télécharge notre application

Un accès facile à toute la météo aéronautique sur ton téléphone portable et ta tablette.
Avec de nombreuses fonctionnalités non disponibles sur le site Web, comme la prise en charge hors ligne et une liste personnelle d'aéroports.

Nous et des tiers suivons ton comportement sur Internet sur notre site Web à l'aide de cookies. Si tu continues, nous supposons que tu acceptes notre politique en matière de cookies. Apprendre plus